Time;durP1;ratioP1;P1;durP2;ratioP2;P2;SDS_P1;SDS_P2;PMS_P1;PMS_P2;Temp;Humidity;BMP_temperature;BMP_pressure;BME280_temperature;BME280_humidity;BME280_pressure;Samples;Min_cycle;Max_cycle;Signal;HPM_P1;HPM_P2
2023/06/19 00:02:16;;;;;;;6.00;5.60;;;;;;;20.26;100.00;99403.56;105360;1258;73306;-53
2023/06/19 00:04:43;;;;;;;5.40;5.10;;;;;;;20.23;100.00;99398.58;107462;1259;60680;-54
2023/06/19 00:07:11;;;;;;;5.50;5.20;;;;;;;20.20;100.00;99396.48;105480;1261;60495;-53
2023/06/19 00:09:38;;;;;;;4.90;4.50;;;;;;;20.15;100.00;99394.56;105438;1258;73059;-53
2023/06/19 00:12:06;;;;;;;6.00;5.30;;;;;;;20.10;100.00;99394.66;105401;1258;66724;-53
2023/06/19 00:14:35;;;;;;;5.60;5.20;;;;;;;20.07;100.00;99396.59;105369;1258;72916;-53
2023/06/19 00:17:03;;;;;;;5.70;5.20;;;;;;;20.04;100.00;99397.95;105365;1254;60548;-51
2023/06/19 00:19:33;;;;;;;6.00;5.60;;;;;;;20.00;100.00;99398.16;105423;1257;60435;-53
2023/06/19 00:22:00;;;;;;;6.50;6.00;;;;;;;19.94;100.00;99398.51;105360;1260;73762;-52
2023/06/19 00:24:27;;;;;;;25.40;11.00;;;;;;;19.89;100.00;99400.80;105523;1253;66010;-52
2023/06/19 00:26:55;;;;;;;13.90;7.80;;;;;;;19.85;100.00;99398.14;105661;1257;72682;-51
2023/06/19 00:29:22;;;;;;;14.10;7.80;;;;;;;19.77;100.00;99400.48;105276;1259;61132;-52
2023/06/19 00:31:50;;;;;;;29.10;9.30;;;;;;;19.71;100.00;99398.52;105299;1260;60464;-53
2023/06/19 00:34:17;;;;;;;20.80;8.00;;;;;;;19.66;100.00;99400.22;105349;1258;73804;-52
2023/06/19 00:36:44;;;;;;;9.90;6.10;;;;;;;19.63;100.00;99399.77;105387;1260;65623;-53
2023/06/19 00:39:13;;;;;;;5.20;4.90;;;;;;;19.62;100.00;99404.22;105393;1257;72690;-54
2023/06/19 00:41:40;;;;;;;4.70;4.40;;;;;;;19.63;100.00;99403.63;105350;1258;61701;-53
2023/06/19 00:44:08;;;;;;;4.60;4.30;;;;;;;19.64;100.00;99400.55;105187;1260;60373;-53
2023/06/19 00:46:37;;;;;;;25.90;8.80;;;;;;;19.69;100.00;99397.45;105408;1254;73777;-54
2023/06/19 00:49:04;;;;;;;35.40;10.40;;;;;;;19.74;100.00;99394.82;105400;1255;65522;-53
2023/06/19 00:51:32;;;;;;;26.60;9.40;;;;;;;19.77;100.00;99398.55;105305;1257;72696;-53
2023/06/19 00:53:59;;;;;;;18.10;7.50;;;;;;;19.76;100.00;99396.95;105243;1254;60537;-52
2023/06/19 00:56:26;;;;;;;35.20;9.80;;;;;;;19.75;100.00;99400.70;105191;1260;60580;-53
2023/06/19 00:58:54;;;;;;;24.90;10.40;;;;;;;19.73;100.00;99397.23;105302;1254;72574;-53
2023/06/19 01:01:23;;;;;;;17.40;7.60;;;;;;;19.70;100.00;99400.24;105411;1254;66873;-52
2023/06/19 01:03:51;;;;;;;27.30;9.00;;;;;;;19.64;100.00;99401.64;105325;1254;72693;-53
2023/06/19 01:06:22;;;;;;;15.70;6.10;;;;;;;19.62;100.00;99402.98;105313;1260;61648;-53
2023/06/19 01:08:57;;;;;;;20.40;8.60;;;;;;;19.61;100.00;99404.89;105278;1253;60560;-53
2023/06/19 01:11:27;;;;;;;22.50;8.20;;;;;;;19.59;100.00;99407.73;105069;1254;73912;-53
2023/06/19 01:13:59;;;;;;;13.00;6.60;;;;;;;19.57;100.00;99411.55;105303;1261;65520;-54
2023/06/19 01:16:28;;;;;;;5.30;5.00;;;;;;;19.57;100.00;99409.24;105264;1258;71053;-53
2023/06/19 01:18:55;;;;;;;6.00;5.40;;;;;;;19.57;100.00;99411.55;105709;1254;60358;-53
2023/06/19 01:21:23;;;;;;;5.20;4.80;;;;;;;19.57;100.00;99408.10;105440;1254;60429;-50
2023/06/19 01:23:50;;;;;;;6.30;5.80;;;;;;;19.58;100.00;99407.73;106633;1253;73798;-50
2023/06/19 01:26:20;;;;;;;6.40;5.90;;;;;;;19.56;100.00;99413.83;105361;1253;66937;-53
2023/06/19 01:28:47;;;;;;;7.40;6.80;;;;;;;19.55;100.00;99420.67;105333;1256;71410;-49
2023/06/19 01:31:19;;;;;;;22.00;9.50;;;;;;;19.56;100.00;99417.95;108851;1254;60016;-52
2023/06/19 01:33:46;;;;;;;8.70;6.00;;;;;;;19.56;100.00;99414.02;108996;1253;60243;-52
2023/06/19 01:36:15;;;;;;;5.90;5.10;;;;;;;19.56;100.00;99413.50;109001;1253;72625;-52
2023/06/19 01:38:43;;;;;;;5.70;5.30;;;;;;;19.55;100.00;99417.05;108953;1253;65506;-53
2023/06/19 01:41:10;;;;;;;6.50;5.90;;;;;;;19.55;100.00;99418.55;106221;1257;71912;-52
2023/06/19 01:43:37;;;;;;;4.90;4.60;;;;;;;19.55;100.00;99420.34;105323;1260;61692;-52
2023/06/19 01:46:05;;;;;;;6.30;5.90;;;;;;;19.57;100.00;99426.55;105290;1253;60369;-51
2023/06/19 01:48:38;;;;;;;5.20;4.80;;;;;;;19.60;100.00;99426.98;105158;1253;72615;-54
2023/06/19 01:51:06;;;;;;;5.90;5.50;;;;;;;19.62;100.00;99423.66;105225;1257;66883;-52
2023/06/19 01:53:34;;;;;;;5.20;4.90;;;;;;;19.66;100.00;99427.02;105305;1258;72090;-53
2023/06/19 01:56:02;;;;;;;5.80;5.40;;;;;;;19.72;100.00;99427.95;105378;1254;60688;-52
2023/06/19 01:58:30;;;;;;;6.90;6.50;;;;;;;19.77;100.00;99431.22;108977;1253;58423;-53
2023/06/19 02:00:57;;;;;;;6.00;5.40;;;;;;;19.82;100.00;99435.48;109089;1253;72618;-51
2023/06/19 02:03:25;;;;;;;6.00;5.60;;;;;;;19.86;100.00;99433.52;108867;1253;65941;-51
2023/06/19 02:05:52;;;;;;;6.10;5.70;;;;;;;19.90;100.00;99433.89;109029;1253;72407;-52
2023/06/19 02:08:20;;;;;;;5.90;5.50;;;;;;;19.94;100.00;99438.44;108930;1253;60121;-51
2023/06/19 02:10:47;;;;;;;5.80;5.40;;;;;;;19.95;100.00;99441.05;108907;1253;210717;-51
2023/06/19 02:14:46;;;;;;;5.40;5.00;;;;;;;19.92;100.00;99438.64;102360;1290;601174;-50
2023/06/19 02:17:14;;;;;;;5.10;4.80;;;;;;;19.84;100.00;99447.54;104433;1267;61552;-52
2023/06/19 02:19:41;;;;;;;5.00;4.60;;;;;;;19.82;100.00;99444.80;104518;1267;60356;-50
2023/06/19 02:22:08;;;;;;;7.60;4.70;;;;;;;19.83;100.00;99447.27;104549;1269;72249;-52
2023/06/19 02:24:37;;;;;;;4.90;4.50;;;;;;;19.85;100.00;99445.77;104582;1269;67368;-51
2023/06/19 02:27:05;;;;;;;5.40;5.00;;;;;;;19.88;100.00;99449.95;104585;1267;71387;-54
2023/06/19 02:29:33;;;;;;;4.90;4.60;;;;;;;19.90;100.00;99454.24;104856;1267;379193;-52
2023/06/19 02:32:02;;;;;;;5.20;4.80;;;;;;;19.93;100.00;99453.45;105476;1261;59402;-50
2023/06/19 02:34:29;;;;;;;5.90;5.40;;;;;;;19.96;100.00;99454.30;105098;1268;73326;-49
2023/06/19 02:36:57;;;;;;;6.20;5.70;;;;;;;19.98;100.00;99456.77;104679;1261;66737;-49
2023/06/19 02:39:24;;;;;;;8.30;7.40;;;;;;;20.01;100.00;99460.14;104831;1267;71787;-52
2023/06/19 02:41:52;;;;;;;6.40;5.90;;;;;;;20.03;100.00;99460.89;104739;1264;64382;-53
2023/06/19 02:44:19;;;;;;;6.80;6.20;;;;;;;20.06;100.00;99457.42;104867;1261;60087;-51
2023/06/19 02:46:47;;;;;;;7.20;6.80;;;;;;;20.08;100.00;99455.95;104723;1261;71664;-52
2023/06/19 02:49:15;;;;;;;6.00;5.50;;;;;;;20.10;100.00;99458.66;104927;1262;66711;-51
2023/06/19 02:51:42;;;;;;;8.20;6.10;;;;;;;20.12;100.00;99457.34;105245;1258;72616;-51
2023/06/19 02:54:10;;;;;;;6.60;6.10;;;;;;;20.14;100.00;99457.42;105159;1262;60065;-50
2023/06/19 02:56:38;;;;;;;7.00;6.50;;;;;;;20.13;100.00;99455.56;105236;1263;59584;-53
2023/06/19 02:59:05;;;;;;;6.30;5.70;;;;;;;20.15;100.00;99453.10;105567;1263;73056;-49
2023/06/19 03:01:33;;;;;;;6.90;6.30;;;;;;;20.17;100.00;99453.98;105189;1262;65507;-51
2023/06/19 03:04:01;;;;;;;5.80;5.40;;;;;;;20.19;100.00;99453.98;105173;1263;73392;-48
2023/06/19 03:06:28;;;;;;;6.10;5.80;;;;;;;20.22;100.00;99458.28;105187;1263;59666;-51
2023/06/19 03:08:57;;;;;;;8.20;5.70;;;;;;;20.25;100.00;99456.33;105285;1256;59996;-53
2023/06/19 03:11:24;;;;;;;6.40;5.40;;;;;;;20.29;100.00;99457.79;105265;1257;71939;-51
2023/06/19 03:13:53;;;;;;;6.20;5.70;;;;;;;20.31;100.00;99454.27;105344;1254;66036;-51
2023/06/19 03:16:20;;;;;;;7.40;6.30;;;;;;;20.34;100.00;99455.66;105600;1258;72669;-52
2023/06/19 03:18:48;;;;;;;6.90;6.40;;;;;;;20.36;100.00;99455.10;105719;1257;59722;-50
2023/06/19 03:21:21;;;;;;;6.10;5.50;;;;;;;20.38;100.00;99459.13;105496;1254;60045;-50
2023/06/19 03:23:50;;;;;;;7.30;6.80;;;;;;;20.39;100.00;99458.45;105556;1254;73041;-50
2023/06/19 03:26:20;;;;;;;6.50;6.20;;;;;;;20.41;100.00;99460.55;105455;1254;66909;-50
2023/06/19 03:28:47;;;;;;;6.90;6.30;;;;;;;20.41;100.00;99460.31;105329;1256;73299;-52
2023/06/19 03:31:15;;;;;;;6.60;6.20;;;;;;;20.42;100.00;99458.44;105163;1254;60010;-49
2023/06/19 03:33:42;;;;;;;6.50;6.20;;;;;;;20.41;100.00;99458.65;105391;1262;61226;-51
2023/06/19 03:36:10;;;;;;;6.60;6.10;;;;;;;20.42;100.00;99458.55;105284;1260;71554;-50
2023/06/19 03:38:47;;;;;;;7.30;6.70;;;;;;;20.42;100.00;99459.64;105482;1255;65703;-52
2023/06/19 03:41:16;;;;;;;6.80;6.40;;;;;;;20.43;100.00;99458.89;106020;1260;72673;-52
2023/06/19 03:43:43;;;;;;;7.20;6.20;;;;;;;20.43;100.00;99458.66;105235;1263;60426;-52
2023/06/19 03:46:11;;;;;;;6.20;5.70;;;;;;;20.44;100.00;99458.55;106371;1256;59990;-51
2023/06/19 03:48:38;;;;;;;7.40;6.50;;;;;;;20.46;100.00;99457.18;105317;1262;72940;-52
2023/06/19 03:51:06;;;;;;;5.50;5.20;;;;;;;20.48;100.00;99457.50;105084;1262;67240;-52
2023/06/19 03:53:33;;;;;;;6.30;5.70;;;;;;;20.51;100.00;99456.82;105240;1260;71461;-54
2023/06/19 03:56:00;;;;;;;6.60;6.00;;;;;;;20.55;100.00;99461.73;105276;1255;60248;-51
2023/06/19 03:58:27;;;;;;;6.80;6.20;;;;;;;20.58;100.00;99464.86;105286;1262;59778;-52
2023/06/19 04:00:55;;;;;;;7.00;6.20;;;;;;;20.62;100.00;99468.00;105251;1254;71835;-49
2023/06/19 04:03:23;;;;;;;7.70;5.20;;;;;;;20.65;100.00;99467.95;105061;1256;68023;-51
2023/06/19 04:05:50;;;;;;;9.70;6.40;;;;;;;20.66;100.00;99472.15;105498;1254;72672;-53
2023/06/19 04:08:18;;;;;;;6.60;6.10;;;;;;;20.69;100.00;99474.78;105341;1257;60036;-52
2023/06/19 04:10:45;;;;;;;6.50;6.00;;;;;;;20.71;100.00;99475.36;105174;1263;59855;-52
2023/06/19 04:13:12;;;;;;;7.50;6.20;;;;;;;20.73;100.00;99469.87;105253;1258;74969;-51
2023/06/19 04:15:40;;;;;;;6.30;5.70;;;;;;;20.75;100.00;99465.84;105199;1260;65950;-50
2023/06/19 04:18:07;;;;;;;6.60;6.20;;;;;;;20.77;100.00;99468.56;105194;1257;72624;-52
2023/06/19 04:20:37;;;;;;;6.40;5.90;;;;;;;20.80;100.00;99475.98;105549;1254;60228;-52
2023/06/19 04:23:04;;;;;;;9.70;6.10;;;;;;;20.82;100.00;99473.92;105103;1262;60032;-51
2023/06/19 04:25:32;;;;;;;6.30;5.80;;;;;;;20.85;100.00;99469.48;105176;1254;73439;-53
2023/06/19 04:27:59;;;;;;;7.70;4.80;;;;;;;20.89;100.00;99468.92;105337;1257;65677;-51
2023/06/19 04:30:30;;;;;;;6.30;5.70;;;;;;;20.92;100.00;99469.15;105184;1259;71893;-51
2023/06/19 04:33:01;;;;;;;6.60;6.10;;;;;;;20.95;100.00;99471.36;108932;1256;59882;-51
2023/06/19 04:35:28;;;;;;;5.70;5.30;;;;;;;21.00;100.00;99465.05;109169;1257;58758;-51
2023/06/19 04:38:01;;;;;;;6.10;5.60;;;;;;;21.06;100.00;99467.43;109201;1254;71839;-52
2023/06/19 04:40:30;;;;;;;14.20;7.50;;;;;;;21.13;100.00;99468.21;109186;1254;66805;-53
2023/06/19 04:42:57;;;;;;;6.20;5.80;;;;;;;21.20;100.00;99468.08;109112;1253;71959;-53
2023/06/19 04:45:24;;;;;;;6.50;6.00;;;;;;;21.28;100.00;99471.02;109125;1254;58745;-53
2023/06/19 04:47:52;;;;;;;7.00;6.50;;;;;;;21.34;100.00;99471.48;109158;1252;58704;-53
2023/06/19 04:50:21;;;;;;;6.80;6.20;;;;;;;21.40;100.00;99472.16;109063;1253;74426;-54
2023/06/19 04:52:50;;;;;;;7.60;7.00;;;;;;;21.45;100.00;99473.86;109139;1252;66801;-52
2023/06/19 04:55:18;;;;;;;7.30;6.80;;;;;;;21.48;100.00;99470.60;109139;1253;72222;-52
2023/06/19 04:57:46;;;;;;;6.90;6.30;;;;;;;21.52;100.00;99471.57;109160;1252;58826;-54
2023/06/19 05:00:14;;;;;;;6.00;5.70;;;;;;;21.54;100.00;99475.66;109267;1254;59998;-52
2023/06/19 05:02:44;;;;;;;7.90;7.10;;;;;;;21.57;100.00;99478.73;109252;1254;72074;-52
2023/06/19 05:05:12;;;;;;;7.90;7.40;;;;;;;21.59;100.00;99479.76;109295;1253;66535;-52
2023/06/19 05:07:40;;;;;;;6.90;6.30;;;;;;;21.62;100.00;99483.33;109147;1253;72655;-51
2023/06/19 05:10:08;;;;;;;8.40;6.30;;;;;;;21.64;100.00;99485.55;109135;1254;60059;-52
2023/06/19 05:12:35;;;;;;;7.70;6.90;;;;;;;21.65;100.00;99486.64;109023;1252;60002;-54
2023/06/19 05:15:06;;;;;;;8.80;6.80;;;;;;;21.67;100.00;99489.38;109076;1253;71733;-53
2023/06/19 05:17:33;;;;;;;9.60;6.80;;;;;;;21.69;100.00;99493.80;107393;1258;67435;-51
2023/06/19 05:20:01;;;;;;;10.00;7.00;;;;;;;21.70;100.00;99496.02;105166;1257;71874;-52
2023/06/19 05:22:29;;;;;;;7.50;6.90;;;;;;;21.72;100.00;99499.33;105385;1254;59676;-55
2023/06/19 05:24:56;;;;;;;8.60;7.80;;;;;;;21.73;100.00;99501.77;105508;1254;60635;-54
2023/06/19 05:27:23;;;;;;;8.50;6.40;;;;;;;21.75;100.00;99501.42;105121;1258;71742;-54
2023/06/19 05:29:51;;;;;;;7.80;5.80;;;;;;;21.75;100.00;99501.91;104901;1257;66942;-52
2023/06/19 05:32:21;;;;;;;7.80;7.10;;;;;;;21.76;100.00;99499.12;105119;1254;72683;-53
2023/06/19 05:34:49;;;;;;;6.50;6.00;;;;;;;21.77;100.00;99505.06;105294;1254;61864;-54
2023/06/19 05:37:17;;;;;;;7.00;5.50;;;;;;;21.78;100.00;99511.29;105282;1254;60199;-53
2023/06/19 05:39:44;;;;;;;7.30;6.80;;;;;;;21.80;100.00;99512.55;105325;1254;73008;-53
2023/06/19 05:42:11;;;;;;;6.70;6.10;;;;;;;21.83;100.00;99512.44;105145;1257;66849;-53
2023/06/19 05:44:40;;;;;;;6.80;6.20;;;;;;;21.86;100.00;99514.64;104872;1254;74196;-53
2023/06/19 05:47:07;;;;;;;6.50;6.00;;;;;;;21.89;100.00;99513.31;104682;1253;62174;-53
2023/06/19 05:49:34;;;;;;;8.00;7.30;;;;;;;21.93;100.00;99511.90;105025;1254;59659;-54
2023/06/19 05:52:02;;;;;;;8.30;7.60;;;;;;;21.95;100.00;99516.61;105199;1253;73859;-52
2023/06/19 05:54:29;;;;;;;8.50;7.90;;;;;;;21.97;100.00;99518.38;105244;1254;67202;-53
2023/06/19 05:56:56;;;;;;;8.60;6.70;;;;;;;22.00;100.00;99513.88;105340;1257;71422;-53
2023/06/19 06:01:50;;;;;;;6.60;6.00;;;;;;;22.07;100.00;99505.52;101542;1291;600134;-52
2023/06/19 06:04:18;;;;;;;10.60;7.40;;;;;;;22.08;100.00;99519.29;104023;1266;61189;-52
2023/06/19 06:06:45;;;;;;;7.30;6.80;;;;;;;22.12;100.00;99518.89;104451;1270;60019;-54
2023/06/19 06:09:16;;;;;;;8.70;8.00;;;;;;;22.16;100.00;99518.38;104590;1271;72311;-54
2023/06/19 06:11:43;;;;;;;9.00;7.60;;;;;;;22.19;100.00;99522.02;104309;1272;69060;-54
2023/06/19 06:14:10;;;;;;;7.10;6.50;;;;;;;22.21;100.00;99535.67;104363;1267;72675;-53
2023/06/19 06:16:39;;;;;;;7.40;6.80;;;;;;;22.24;100.00;99540.35;104379;1265;129252;-55
2023/06/19 06:19:07;;;;;;;6.60;6.10;;;;;;;22.28;100.00;99534.16;104361;1263;62391;-54
2023/06/19 06:21:34;;;;;;;7.50;6.40;;;;;;;22.31;100.00;99533.83;104429;1263;72184;-54
2023/06/19 06:24:02;;;;;;;7.00;6.40;;;;;;;22.35;100.00;99537.43;104326;1267;66853;-55
2023/06/19 06:26:30;;;;;;;7.10;6.50;;;;;;;22.42;100.00;99536.02;104901;1260;71429;-51
2023/06/19 06:28:57;;;;;;;6.10;5.60;;;;;;;22.51;100.00;99535.20;104688;1259;60703;-54
2023/06/19 06:31:25;;;;;;;6.70;5.10;;;;;;;22.63;100.00;99534.95;104655;1260;60218;-53
2023/06/19 06:33:52;;;;;;;6.80;5.70;;;;;;;22.76;100.00;99530.69;104677;1259;73714;-51
2023/06/19 06:36:19;;;;;;;6.10;5.40;;;;;;;22.90;100.00;99529.86;104777;1263;67238;-53
2023/06/19 06:39:02;;;;;;;7.50;5.60;;;;;;;23.01;100.00;99536.00;104990;1260;72622;-52
2023/06/19 06:41:29;;;;;;;6.30;5.70;;;;;;;23.10;100.00;99538.75;104903;1260;60011;-52
2023/06/19 06:43:57;;;;;;;6.40;5.80;;;;;;;23.18;100.00;99542.64;104675;1258;60030;-54
2023/06/19 06:46:24;;;;;;;6.40;5.80;;;;;;;23.25;100.00;99541.34;104612;1258;71858;-53
2023/06/19 06:48:51;;;;;;;6.40;5.90;;;;;;;23.29;100.00;99543.10;104778;1259;67058;-54
2023/06/19 06:51:19;;;;;;;7.50;6.60;;;;;;;23.33;100.00;99547.59;104744;1260;72696;-54
2023/06/19 06:53:46;;;;;;;7.20;6.60;;;;;;;23.38;100.00;99544.95;104732;1260;59644;-53
2023/06/19 06:56:13;;;;;;;7.60;5.90;;;;;;;23.43;100.00;99544.26;104694;1265;60032;-53
2023/06/19 06:58:40;;;;;;;7.00;6.40;;;;;;;23.46;100.00;99543.61;104680;1263;71953;-53
2023/06/19 07:01:08;;;;;;;10.20;6.10;;;;;;;23.48;100.00;99539.70;104702;1262;67248;-54
2023/06/19 07:03:36;;;;;;;6.60;6.10;;;;;;;23.48;100.00;99540.67;105354;1259;72443;-51
2023/06/19 07:06:03;;;;;;;6.50;5.90;;;;;;;23.47;100.00;99540.50;105510;1261;60479;-53
2023/06/19 07:08:30;;;;;;;7.50;6.80;;;;;;;23.47;100.00;99538.36;104924;1262;60030;-53
2023/06/19 07:10:58;;;;;;;7.60;6.90;;;;;;;23.48;100.00;99541.22;104846;1259;73078;-53
2023/06/19 07:13:25;;;;;;;9.20;7.70;;;;;;;23.49;100.00;99539.44;104751;1260;67091;-54
2023/06/19 07:15:52;;;;;;;7.50;6.50;;;;;;;23.50;100.00;99541.94;104838;1263;72043;-51
2023/06/19 07:18:20;;;;;;;7.00;6.50;;;;;;;23.50;100.00;99543.75;104691;1259;59664;-51
2023/06/19 07:20:47;;;;;;;8.10;7.50;;;;;;;23.50;100.00;99542.77;104583;1260;59932;-54
2023/06/19 07:23:14;;;;;;;8.60;7.40;;;;;;;23.51;100.00;99546.38;104578;1259;73027;-54
2023/06/19 07:25:41;;;;;;;8.00;7.30;;;;;;;23.51;100.00;99550.02;104485;1262;67211;-54
2023/06/19 07:28:08;;;;;;;8.50;7.70;;;;;;;23.52;100.00;99556.66;104427;1263;71198;-53
2023/06/19 07:30:36;;;;;;;13.20;8.40;;;;;;;23.54;100.00;99557.74;104489;1261;60020;-54
2023/06/19 07:33:03;;;;;;;10.60;7.40;;;;;;;23.55;100.00;99557.65;104646;1259;60032;-53
2023/06/19 07:35:30;;;;;;;9.00;7.20;;;;;;;23.56;100.00;99560.47;104508;1259;74041;-54
2023/06/19 07:37:58;;;;;;;14.30;7.80;;;;;;;23.57;100.00;99561.42;104826;1259;66820;-53
2023/06/19 07:40:25;;;;;;;7.90;7.30;;;;;;;23.58;100.00;99564.28;104411;1259;72668;-54
2023/06/19 07:42:53;;;;;;;7.80;6.40;;;;;;;23.59;100.00;99565.31;104300;1261;59854;-55
2023/06/19 07:45:22;;;;;;;11.60;7.60;;;;;;;23.61;100.00;99570.39;104879;1259;60432;-55
2023/06/19 07:47:56;;;;;;;8.80;7.70;;;;;;;23.64;100.00;99572.23;108620;1261;73095;-53
2023/06/19 07:50:24;;;;;;;6.90;6.40;;;;;;;23.67;100.00;99569.35;108566;1259;67710;-55
2023/06/19 07:52:53;;;;;;;9.60;8.10;;;;;;;23.70;100.00;99573.23;108634;1260;72700;-54
2023/06/19 07:55:21;;;;;;;8.20;7.60;;;;;;;23.74;100.00;99577.41;108672;1259;60075;-56
2023/06/19 07:57:48;;;;;;;8.60;7.10;;;;;;;23.79;100.00;99579.48;108061;1262;60013;-53
2023/06/19 08:00:16;;;;;;;8.60;8.00;;;;;;;23.87;100.00;99583.95;104520;1259;72990;-53
2023/06/19 08:02:43;;;;;;;7.60;6.90;;;;;;;23.97;100.00;99585.42;104624;1262;69101;-53
2023/06/19 08:05:11;;;;;;;7.40;6.60;;;;;;;24.09;100.00;99586.69;107100;1261;70517;-53
2023/06/19 08:07:39;;;;;;;6.40;5.90;;;;;;;24.23;100.00;99585.73;108553;1259;60004;-52
2023/06/19 08:10:07;;;;;;;6.90;5.40;;;;;;;24.37;100.00;99587.67;108546;1260;60902;-53
2023/06/19 08:12:41;;;;;;;6.10;5.60;;;;;;;24.51;100.00;99591.31;108558;1262;73579;-54
2023/06/19 08:15:10;;;;;;;5.40;4.90;;;;;;;24.65;100.00;99594.79;106591;1260;68887;-51
2023/06/19 08:17:37;;;;;;;4.80;4.50;;;;;;;24.75;100.00;99594.16;104844;1260;72922;-52
2023/06/19 08:20:06;;;;;;;4.90;4.50;;;;;;;24.83;100.00;99597.28;105687;1261;61184;-52
2023/06/19 08:22:35;;;;;;;6.10;5.70;;;;;;;24.92;100.00;99598.52;105326;1265;59685;-50
2023/06/19 08:25:03;;;;;;;5.10;4.60;;;;;;;25.01;100.00;99594.98;105251;1259;71834;-51
2023/06/19 08:27:31;;;;;;;6.30;5.20;;;;;;;25.09;100.00;99594.45;105013;1260;66896;-51
2023/06/19 08:29:58;;;;;;;5.00;4.60;;;;;;;25.16;100.00;99595.76;104802;1263;71473;-52
2023/06/19 08:32:26;;;;;;;5.50;5.20;;;;;;;25.22;100.00;99597.41;104876;1257;60006;-51
2023/06/19 08:34:54;;;;;;;4.70;4.20;;;;;;;25.31;100.00;99593.80;105786;1262;59654;-53
2023/06/19 08:37:21;;;;;;;4.60;4.30;;;;;;;25.42;100.00;99591.96;105033;1263;71170;-53
2023/06/19 08:39:48;;;;;;;3.90;3.60;;;;;;;25.53;100.00;99590.77;105048;1259;65516;-52
2023/06/19 08:42:16;;;;;;;5.90;4.80;;;;;;;25.62;100.00;99591.26;105044;1259;72638;-51
2023/06/19 08:44:43;;;;;;;7.10;4.00;;;;;;;25.70;100.00;99591.43;105130;1256;59972;-52
2023/06/19 08:47:10;;;;;;;4.20;3.90;;;;;;;25.77;100.00;99595.29;104891;1256;60011;-52
2023/06/19 08:49:39;;;;;;;6.80;3.70;;;;;;;25.82;100.00;99594.61;104334;1259;71791;-52
2023/06/19 08:52:07;;;;;;;3.80;3.10;;;;;;;25.90;100.00;99595.36;104417;1262;66271;-53
2023/06/19 08:54:43;;;;;;;4.20;3.80;;;;;;;26.00;100.00;99595.10;104687;1259;71401;-52
2023/06/19 08:57:14;;;;;;;4.00;3.60;;;;;;;26.11;100.00;99597.03;104703;1256;62048;-53
2023/06/19 08:59:49;;;;;;;4.10;3.70;;;;;;;26.18;100.00;99597.88;108761;1256;60581;-53
2023/06/19 09:02:17;;;;;;;4.30;3.70;;;;;;;26.24;100.00;99598.55;108699;1256;73199;-53
2023/06/19 09:04:44;;;;;;;5.80;4.50;;;;;;;26.31;100.00;99599.61;108772;1260;66878;-52
2023/06/19 09:07:14;;;;;;;3.20;3.00;;;;;;;26.37;100.00;99602.25;108750;1259;71392;-52
2023/06/19 09:09:47;;;;;;;4.00;3.70;;;;;;;26.40;100.00;99604.06;106754;1256;60080;-52
2023/06/19 09:12:15;;;;;;;3.90;2.90;;;;;;;26.42;100.00;99602.69;104776;1262;59744;-52
2023/06/19 09:14:45;;;;;;;3.00;2.80;;;;;;;26.44;100.00;99604.02;104964;1256;73003;-53
2023/06/19 09:17:17;;;;;;;3.70;3.20;;;;;;;26.48;100.00;99603.58;105057;1257;64929;-53
2023/06/19 09:19:50;;;;;;;3.20;3.00;;;;;;;26.50;100.00;99603.30;105474;1256;72901;-52
2023/06/19 09:22:20;;;;;;;3.70;2.80;;;;;;;26.52;100.00;99603.64;104444;1262;59746;-53
2023/06/19 09:24:48;;;;;;;2.60;2.40;;;;;;;26.56;100.00;99606.27;105625;1257;60584;-52
2023/06/19 09:27:20;;;;;;;2.80;2.60;;;;;;;26.60;100.00;99605.25;105508;1259;73599;-52
2023/06/19 09:29:49;;;;;;;2.30;2.10;;;;;;;26.63;100.00;99605.14;104732;1261;65517;-53
2023/06/19 09:32:20;;;;;;;2.10;1.90;;;;;;;26.65;100.00;99599.15;104719;1262;73162;-52
2023/06/19 09:34:50;;;;;;;2.80;2.10;;;;;;;26.69;100.00;99599.27;104909;1256;59823;-54
2023/06/19 09:37:25;;;;;;;2.10;2.00;;;;;;;26.74;100.00;99601.94;104845;1257;60497;-52
2023/06/19 09:39:57;;;;;;;5.40;2.70;;;;;;;26.78;100.00;99600.20;104413;1259;71878;-54
2023/06/19 09:42:30;;;;;;;3.40;2.20;;;;;;;26.82;100.00;99599.36;106963;1256;65973;-53
2023/06/19 09:45:04;;;;;;;2.70;2.10;;;;;;;26.84;100.00;99602.95;105077;1262;72235;-52
2023/06/19 09:47:38;;;;;;;4.00;2.80;;;;;;;26.83;100.00;99596.61;106323;1257;59951;-53
2023/06/19 09:50:06;;;;;;;2.90;2.10;;;;;;;26.81;100.00;99597.77;104976;1257;60331;-53
2023/06/19 09:52:34;;;;;;;6.10;2.60;;;;;;;26.80;100.00;99593.89;105011;1262;73786;-52
2023/06/19 09:55:06;;;;;;;2.60;2.40;;;;;;;26.80;100.00;99592.58;105151;1262;70898;-51
2023/06/19 09:57:34;;;;;;;3.00;2.60;;;;;;;26.84;100.00;99594.70;105316;1262;72573;-51
2023/06/19 10:00:12;;;;;;;5.30;2.90;;;;;;;26.89;100.00;99590.98;104842;1264;60105;-52
2023/06/19 10:02:40;;;;;;;1.60;1.50;;;;;;;26.97;100.00;99593.34;108760;1256;60466;-51
2023/06/19 10:05:13;;;;;;;2.40;2.20;;;;;;;27.07;100.00;99590.69;105498;1262;72163;-52
2023/06/19 10:07:42;;;;;;;2.00;1.90;;;;;;;27.16;100.00;99589.27;105491;1257;66821;-51
2023/06/19 10:10:12;;;;;;;5.40;2.30;;;;;;;27.24;100.00;99585.44;105134;1262;73033;-49
2023/06/19 10:12:44;;;;;;;4.30;2.40;;;;;;;27.33;100.00;99583.98;105519;1262;60481;-52
2023/06/19 10:15:12;;;;;;;2.60;2.20;;;;;;;27.42;100.00;99578.84;105120;1262;60423;-52
2023/06/19 10:17:44;;;;;;;2.60;1.80;;;;;;;27.50;100.00;99576.19;105076;1262;74702;-53
2023/06/19 10:20:21;;;;;;;3.70;2.30;;;;;;;27.58;100.00;99572.71;105122;1256;66893;-54
2023/06/19 10:23:05;;;;;;;2.10;1.40;;;;;;;27.64;100.00;99566.65;105854;1257;73670;-54
2023/06/19 10:25:35;;;;;;;3.00;1.50;;;;;;;27.71;100.00;99564.09;108822;1257;59077;-53
2023/06/19 10:28:42;;;;;;;1.90;1.70;;;;;;;27.77;100.00;99564.53;108705;1255;60587;-53
2023/06/19 10:31:09;;;;;;;1.70;1.60;;;;;;;27.85;100.00;99566.35;108871;1255;73178;-53
2023/06/19 10:33:40;;;;;;;1.70;1.30;;;;;;;27.91;100.00;99562.52;108832;1255;66051;-52
2023/06/19 10:36:17;;;;;;;3.90;1.50;;;;;;;27.95;100.00;99560.96;108829;1256;72891;-54
2023/06/19 10:38:47;;;;;;;3.90;2.20;;;;;;;27.99;100.00;99557.58;108858;1256;59476;-54
2023/06/19 10:41:22;;;;;;;3.50;2.20;;;;;;;28.04;100.00;99554.42;108904;1255;60019;-53
2023/06/19 10:43:55;;;;;;;1.80;1.70;;;;;;;28.06;100.00;99548.62;108891;1258;72553;-55
2023/06/19 10:46:23;;;;;;;1.80;1.70;;;;;;;28.10;100.00;99543.10;108871;1256;66011;-54
2023/06/19 10:48:51;;;;;;;2.80;2.60;;;;;;;28.15;100.00;99542.13;108888;1256;72707;-54
2023/06/19 10:51:19;;;;;;;4.80;1.80;;;;;;;28.20;100.00;99532.51;108766;1255;60046;-53
2023/06/19 10:53:46;;;;;;;2.30;2.20;;;;;;;28.23;100.00;99527.48;108895;1255;58799;-53
2023/06/19 10:56:13;;;;;;;2.50;2.30;;;;;;;28.29;100.00;99526.48;108826;1256;73924;-55
2023/06/19 10:58:41;;;;;;;2.60;2.40;;;;;;;28.34;100.00;99523.61;108900;1255;67246;-54
2023/06/19 11:01:08;;;;;;;2.10;2.00;;;;;;;28.40;100.00;99523.45;108884;1256;72027;-53
2023/06/19 11:03:38;;;;;;;2.60;2.40;;;;;;;28.43;100.00;99521.13;108829;1261;62268;-54
2023/06/19 11:06:05;;;;;;;2.00;1.90;;;;;;;28.46;100.00;99522.06;108292;1256;60994;-54
2023/06/19 11:08:33;;;;;;;2.70;1.60;;;;;;;28.48;100.00;99514.91;105117;1262;76072;-52
2023/06/19 11:11:00;;;;;;;2.00;1.90;;;;;;;28.53;100.00;99515.03;105084;1256;66871;-53
2023/06/19 11:13:28;;;;;;;2.70;2.50;;;;;;;28.57;100.00;99513.40;105199;1262;72725;-54
2023/06/19 11:15:55;;;;;;;4.80;2.40;;;;;;;28.59;100.00;99517.37;105159;1256;60716;-54
2023/06/19 11:18:22;;;;;;;4.00;2.60;;;;;;;28.62;100.00;99512.41;105210;1256;62005;-53
2023/06/19 11:20:51;;;;;;;2.60;2.40;;;;;;;28.66;100.00;99510.33;105112;1256;72649;-52
2023/06/19 11:23:31;;;;;;;3.60;3.40;;;;;;;28.70;100.00;99510.98;105763;1260;66840;-52
2023/06/19 11:26:05;;;;;;;2.90;2.10;;;;;;;28.74;100.00;99513.15;105084;1256;74196;-52
2023/06/19 11:28:32;;;;;;;3.20;2.50;;;;;;;28.77;100.00;99516.14;105509;1260;60373;-53